sensor_id;sensor_type;location;lat;lon;timestamp;P1;durP1;ratioP1;P2;durP2;ratioP2
54805;SDS011;62866;55.776;37.496;2023-06-26T00:00:12;6.80;;;4.50;;
54805;SDS011;62866;55.776;37.496;2023-06-26T00:02:38;7.07;;;4.78;;
54805;SDS011;62866;55.776;37.496;2023-06-26T00:05:04;8.27;;;4.72;;
54805;SDS011;62866;55.776;37.496;2023-06-26T00:07:30;9.25;;;4.97;;
54805;SDS011;62866;55.776;37.496;2023-06-26T00:09:56;6.55;;;4.25;;
54805;SDS011;62866;55.776;37.496;2023-06-26T00:12:23;9.70;;;4.68;;
54805;SDS011;62866;55.776;37.496;2023-06-26T00:14:49;10.43;;;5.15;;
54805;SDS011;62866;55.776;37.496;2023-06-26T00:17:14;6.65;;;4.18;;
54805;SDS011;62866;55.776;37.496;2023-06-26T00:19:40;7.07;;;4.32;;
54805;SDS011;62866;55.776;37.496;2023-06-26T00:22:05;8.70;;;4.75;;
54805;SDS011;62866;55.776;37.496;2023-06-26T00:24:30;8.68;;;4.97;;
54805;SDS011;62866;55.776;37.496;2023-06-26T00:26:56;7.38;;;4.55;;
54805;SDS011;62866;55.776;37.496;2023-06-26T00:29:21;8.45;;;5.18;;
54805;SDS011;62866;55.776;37.496;2023-06-26T00:31:47;7.38;;;4.75;;
54805;SDS011;62866;55.776;37.496;2023-06-26T00:34:12;8.02;;;4.43;;
54805;SDS011;62866;55.776;37.496;2023-06-26T00:36:39;10.07;;;5.35;;
54805;SDS011;62866;55.776;37.496;2023-06-26T00:39:08;9.52;;;5.18;;
54805;SDS011;62866;55.776;37.496;2023-06-26T00:41:35;8.75;;;5.05;;
54805;SDS011;62866;55.776;37.496;2023-06-26T00:44:07;7.20;;;5.03;;
54805;SDS011;62866;55.776;37.496;2023-06-26T00:46:32;12.23;;;5.72;;
54805;SDS011;62866;55.776;37.496;2023-06-26T00:48:59;12.77;;;6.10;;
54805;SDS011;62866;55.776;37.496;2023-06-26T00:51:27;9.55;;;4.85;;
54805;SDS011;62866;55.776;37.496;2023-06-26T00:53:54;9.43;;;4.72;;
54805;SDS011;62866;55.776;37.496;2023-06-26T00:56:21;11.68;;;5.15;;
54805;SDS011;62866;55.776;37.496;2023-06-26T00:58:47;8.10;;;4.70;;
54805;SDS011;62866;55.776;37.496;2023-06-26T01:01:12;8.88;;;5.28;;
54805;SDS011;62866;55.776;37.496;2023-06-26T01:03:42;10.55;;;5.25;;
54805;SDS011;62866;55.776;37.496;2023-06-26T01:06:10;9.90;;;5.25;;
54805;SDS011;62866;55.776;37.496;2023-06-26T01:08:41;8.90;;;5.38;;
54805;SDS011;62866;55.776;37.496;2023-06-26T01:11:07;11.07;;;5.60;;
54805;SDS011;62866;55.776;37.496;2023-06-26T01:13:33;10.57;;;5.32;;
54805;SDS011;62866;55.776;37.496;2023-06-26T01:16:00;7.53;;;4.78;;
54805;SDS011;62866;55.776;37.496;2023-06-26T01:18:27;7.90;;;4.55;;
54805;SDS011;62866;55.776;37.496;2023-06-26T01:20:54;8.70;;;4.97;;
54805;SDS011;62866;55.776;37.496;2023-06-26T01:23:35;12.60;;;5.13;;
54805;SDS011;62866;55.776;37.496;2023-06-26T01:26:21;8.45;;;5.63;;
54805;SDS011;62866;55.776;37.496;2023-06-26T01:28:49;8.25;;;4.35;;
54805;SDS011;62866;55.776;37.496;2023-06-26T01:31:16;11.98;;;5.38;;
54805;SDS011;62866;55.776;37.496;2023-06-26T01:33:43;10.32;;;5.70;;
54805;SDS011;62866;55.776;37.496;2023-06-26T01:36:09;8.05;;;5.05;;
54805;SDS011;62866;55.776;37.496;2023-06-26T01:38:35;7.20;;;4.78;;
54805;SDS011;62866;55.776;37.496;2023-06-26T01:41:01;8.60;;;5.30;;
54805;SDS011;62866;55.776;37.496;2023-06-26T01:46:16;9.05;;;5.40;;
54805;SDS011;62866;55.776;37.496;2023-06-26T01:48:50;9.52;;;4.95;;
54805;SDS011;62866;55.776;37.496;2023-06-26T01:51:22;10.25;;;5.45;;
54805;SDS011;62866;55.776;37.496;2023-06-26T01:54:07;11.55;;;5.72;;
54805;SDS011;62866;55.776;37.496;2023-06-26T01:56:38;12.10;;;6.05;;
54805;SDS011;62866;55.776;37.496;2023-06-26T01:59:05;10.55;;;5.78;;
54805;SDS011;62866;55.776;37.496;2023-06-26T02:01:32;9.90;;;5.50;;
54805;SDS011;62866;55.776;37.496;2023-06-26T02:03:59;9.32;;;5.80;;
54805;SDS011;62866;55.776;37.496;2023-06-26T02:06:24;8.90;;;5.32;;
54805;SDS011;62866;55.776;37.496;2023-06-26T02:08:50;9.30;;;5.80;;
54805;SDS011;62866;55.776;37.496;2023-06-26T02:11:15;14.48;;;5.72;;
54805;SDS011;62866;55.776;37.496;2023-06-26T02:13:41;8.55;;;5.10;;
54805;SDS011;62866;55.776;37.496;2023-06-26T02:16:06;8.05;;;5.50;;
54805;SDS011;62866;55.776;37.496;2023-06-26T02:18:32;13.27;;;5.57;;
54805;SDS011;62866;55.776;37.496;2023-06-26T02:20:57;9.25;;;5.05;;
54805;SDS011;62866;55.776;37.496;2023-06-26T02:23:23;9.60;;;5.97;;
54805;SDS011;62866;55.776;37.496;2023-06-26T02:25:48;13.88;;;5.65;;
54805;SDS011;62866;55.776;37.496;2023-06-26T02:28:13;8.50;;;6.45;;
54805;SDS011;62866;55.776;37.496;2023-06-26T02:30:39;8.68;;;5.70;;
54805;SDS011;62866;55.776;37.496;2023-06-26T02:33:04;13.02;;;7.20;;
54805;SDS011;62866;55.776;37.496;2023-06-26T02:35:30;9.00;;;6.07;;
54805;SDS011;62866;55.776;37.496;2023-06-26T02:37:57;11.18;;;6.68;;
54805;SDS011;62866;55.776;37.496;2023-06-26T02:40:23;11.57;;;7.60;;
54805;SDS011;62866;55.776;37.496;2023-06-26T02:42:48;11.20;;;6.75;;
54805;SDS011;62866;55.776;37.496;2023-06-26T02:45:14;13.43;;;6.65;;
54805;SDS011;62866;55.776;37.496;2023-06-26T02:47:39;10.18;;;6.30;;
54805;SDS011;62866;55.776;37.496;2023-06-26T02:50:06;10.65;;;6.60;;
54805;SDS011;62866;55.776;37.496;2023-06-26T02:52:32;12.48;;;6.65;;
54805;SDS011;62866;55.776;37.496;2023-06-26T02:54:57;9.40;;;6.28;;
54805;SDS011;62866;55.776;37.496;2023-06-26T02:57:23;14.50;;;7.85;;
54805;SDS011;62866;55.776;37.496;2023-06-26T02:59:48;13.45;;;7.22;;
54805;SDS011;62866;55.776;37.496;2023-06-26T03:02:14;12.25;;;7.72;;
54805;SDS011;62866;55.776;37.496;2023-06-26T03:04:39;14.48;;;7.97;;
54805;SDS011;62866;55.776;37.496;2023-06-26T03:07:05;11.52;;;7.53;;
54805;SDS011;62866;55.776;37.496;2023-06-26T03:09:30;11.27;;;6.93;;
54805;SDS011;62866;55.776;37.496;2023-06-26T03:11:56;12.48;;;6.68;;
54805;SDS011;62866;55.776;37.496;2023-06-26T03:14:21;13.80;;;7.50;;
54805;SDS011;62866;55.776;37.496;2023-06-26T03:16:47;12.88;;;7.80;;
54805;SDS011;62866;55.776;37.496;2023-06-26T03:19:12;13.98;;;8.20;;
54805;SDS011;62866;55.776;37.496;2023-06-26T03:21:38;16.27;;;8.57;;
54805;SDS011;62866;55.776;37.496;2023-06-26T03:24:03;14.98;;;7.93;;
54805;SDS011;62866;55.776;37.496;2023-06-26T03:26:30;15.82;;;8.50;;
54805;SDS011;62866;55.776;37.496;2023-06-26T03:28:55;20.20;;;9.60;;
54805;SDS011;62866;55.776;37.496;2023-06-26T03:31:21;15.10;;;8.02;;
54805;SDS011;62866;55.776;37.496;2023-06-26T03:33:46;14.88;;;9.13;;
54805;SDS011;62866;55.776;37.496;2023-06-26T03:36:12;15.18;;;8.90;;
54805;SDS011;62866;55.776;37.496;2023-06-26T03:38:37;19.48;;;10.07;;
54805;SDS011;62866;55.776;37.496;2023-06-26T03:41:03;20.65;;;10.15;;
54805;SDS011;62866;55.776;37.496;2023-06-26T03:43:28;13.27;;;9.00;;
54805;SDS011;62866;55.776;37.496;2023-06-26T03:45:54;17.90;;;9.45;;
54805;SDS011;62866;55.776;37.496;2023-06-26T03:48:19;16.48;;;9.07;;
54805;SDS011;62866;55.776;37.496;2023-06-26T03:50:45;17.30;;;10.70;;
54805;SDS011;62866;55.776;37.496;2023-06-26T03:53:10;15.77;;;9.40;;
54805;SDS011;62866;55.776;37.496;2023-06-26T03:55:37;23.02;;;11.50;;
54805;SDS011;62866;55.776;37.496;2023-06-26T03:58:03;19.70;;;10.32;;
54805;SDS011;62866;55.776;37.496;2023-06-26T04:00:29;20.63;;;10.88;;
54805;SDS011;62866;55.776;37.496;2023-06-26T04:02:55;18.10;;;10.60;;
54805;SDS011;62866;55.776;37.496;2023-06-26T04:05:20;17.13;;;11.05;;
54805;SDS011;62866;55.776;37.496;2023-06-26T04:07:49;19.48;;;10.45;;
54805;SDS011;62866;55.776;37.496;2023-06-26T04:10:15;26.70;;;13.45;;
54805;SDS011;62866;55.776;37.496;2023-06-26T04:12:41;26.48;;;12.07;;
54805;SDS011;62866;55.776;37.496;2023-06-26T04:15:06;23.15;;;12.10;;
54805;SDS011;62866;55.776;37.496;2023-06-26T04:17:32;22.63;;;12.80;;
54805;SDS011;62866;55.776;37.496;2023-06-26T04:19:58;24.90;;;12.45;;
54805;SDS011;62866;55.776;37.496;2023-06-26T04:22:23;15.95;;;9.27;;
54805;SDS011;62866;55.776;37.496;2023-06-26T04:24:50;15.27;;;8.95;;
54805;SDS011;62866;55.776;37.496;2023-06-26T04:27:15;15.38;;;9.73;;
54805;SDS011;62866;55.776;37.496;2023-06-26T04:29:41;15.38;;;9.43;;
54805;SDS011;62866;55.776;37.496;2023-06-26T04:32:07;19.35;;;9.23;;
54805;SDS011;62866;55.776;37.496;2023-06-26T04:34:32;14.68;;;8.63;;
54805;SDS011;62866;55.776;37.496;2023-06-26T04:36:59;16.00;;;9.07;;
54805;SDS011;62866;55.776;37.496;2023-06-26T04:39:24;15.35;;;8.63;;
54805;SDS011;62866;55.776;37.496;2023-06-26T04:41:50;15.02;;;8.25;;
54805;SDS011;62866;55.776;37.496;2023-06-26T04:44:15;13.57;;;8.77;;
54805;SDS011;62866;55.776;37.496;2023-06-26T04:46:41;16.10;;;9.20;;
54805;SDS011;62866;55.776;37.496;2023-06-26T04:49:07;15.57;;;8.18;;
54805;SDS011;62866;55.776;37.496;2023-06-26T04:51:33;12.90;;;7.60;;
54805;SDS011;62866;55.776;37.496;2023-06-26T04:53:58;11.88;;;7.25;;
54805;SDS011;62866;55.776;37.496;2023-06-26T04:56:24;12.73;;;8.85;;
54805;SDS011;62866;55.776;37.496;2023-06-26T04:58:49;11.40;;;6.65;;
54805;SDS011;62866;55.776;37.496;2023-06-26T05:01:15;19.13;;;8.88;;
54805;SDS011;62866;55.776;37.496;2023-06-26T05:03:40;11.88;;;7.60;;
54805;SDS011;62866;55.776;37.496;2023-06-26T05:06:06;10.70;;;6.25;;
54805;SDS011;62866;55.776;37.496;2023-06-26T05:08:31;10.75;;;6.88;;
54805;SDS011;62866;55.776;37.496;2023-06-26T05:10:57;11.13;;;7.55;;
54805;SDS011;62866;55.776;37.496;2023-06-26T05:13:25;9.55;;;6.32;;
54805;SDS011;62866;55.776;37.496;2023-06-26T05:15:51;8.95;;;5.47;;
54805;SDS011;62866;55.776;37.496;2023-06-26T05:18:17;7.55;;;5.57;;
54805;SDS011;62866;55.776;37.496;2023-06-26T05:20:43;7.32;;;5.43;;
54805;SDS011;62866;55.776;37.496;2023-06-26T05:23:10;6.50;;;4.72;;
54805;SDS011;62866;55.776;37.496;2023-06-26T05:25:37;6.47;;;4.35;;
54805;SDS011;62866;55.776;37.496;2023-06-26T05:28:03;9.60;;;5.20;;
54805;SDS011;62866;55.776;37.496;2023-06-26T05:30:35;5.65;;;3.63;;
54805;SDS011;62866;55.776;37.496;2023-06-26T05:33:01;6.55;;;4.35;;
54805;SDS011;62866;55.776;37.496;2023-06-26T05:35:30;6.80;;;4.80;;
54805;SDS011;62866;55.776;37.496;2023-06-26T05:37:56;9.07;;;4.53;;
54805;SDS011;62866;55.776;37.496;2023-06-26T05:40:22;7.93;;;4.35;;
54805;SDS011;62866;55.776;37.496;2023-06-26T05:42:49;6.47;;;4.07;;
54805;SDS011;62866;55.776;37.496;2023-06-26T05:45:14;6.97;;;4.32;;
54805;SDS011;62866;55.776;37.496;2023-06-26T05:47:41;6.20;;;4.30;;
54805;SDS011;62866;55.776;37.496;2023-06-26T05:50:07;7.50;;;4.90;;
54805;SDS011;62866;55.776;37.496;2023-06-26T05:52:34;7.68;;;5.18;;
54805;SDS011;62866;55.776;37.496;2023-06-26T05:55:01;6.50;;;4.70;;
54805;SDS011;62866;55.776;37.496;2023-06-26T05:57:27;6.63;;;4.05;;
54805;SDS011;62866;55.776;37.496;2023-06-26T05:59:54;7.95;;;5.10;;
54805;SDS011;62866;55.776;37.496;2023-06-26T06:02:20;4.65;;;3.33;;
54805;SDS011;62866;55.776;37.496;2023-06-26T06:04:45;7.38;;;4.30;;
54805;SDS011;62866;55.776;37.496;2023-06-26T06:07:11;8.13;;;4.32;;
54805;SDS011;62866;55.776;37.496;2023-06-26T06:09:37;8.27;;;4.13;;
54805;SDS011;62866;55.776;37.496;2023-06-26T06:12:03;6.03;;;4.20;;
54805;SDS011;62866;55.776;37.496;2023-06-26T06:14:30;6.47;;;4.38;;
54805;SDS011;62866;55.776;37.496;2023-06-26T06:16:56;7.60;;;4.07;;
54805;SDS011;62866;55.776;37.496;2023-06-26T06:19:22;4.97;;;3.90;;
54805;SDS011;62866;55.776;37.496;2023-06-26T06:21:48;5.47;;;3.72;;
54805;SDS011;62866;55.776;37.496;2023-06-26T06:24:13;6.80;;;3.67;;
54805;SDS011;62866;55.776;37.496;2023-06-26T06:26:39;7.20;;;3.95;;
54805;SDS011;62866;55.776;37.496;2023-06-26T06:29:04;6.15;;;4.00;;
54805;SDS011;62866;55.776;37.496;2023-06-26T06:31:31;4.20;;;3.22;;
54805;SDS011;62866;55.776;37.496;2023-06-26T06:33:56;7.32;;;4.10;;
54805;SDS011;62866;55.776;37.496;2023-06-26T06:36:22;6.50;;;4.35;;
54805;SDS011;62866;55.776;37.496;2023-06-26T06:38:47;5.38;;;3.90;;
54805;SDS011;62866;55.776;37.496;2023-06-26T06:41:13;6.35;;;3.70;;
54805;SDS011;62866;55.776;37.496;2023-06-26T06:43:38;5.28;;;3.58;;
54805;SDS011;62866;55.776;37.496;2023-06-26T06:46:04;5.13;;;4.15;;
54805;SDS011;62866;55.776;37.496;2023-06-26T06:48:30;6.78;;;4.55;;
54805;SDS011;62866;55.776;37.496;2023-06-26T06:50:56;6.22;;;3.67;;
54805;SDS011;62866;55.776;37.496;2023-06-26T06:53:22;7.13;;;3.97;;
54805;SDS011;62866;55.776;37.496;2023-06-26T06:55:48;6.38;;;3.72;;
54805;SDS011;62866;55.776;37.496;2023-06-26T06:58:14;4.53;;;3.10;;
54805;SDS011;62866;55.776;37.496;2023-06-26T07:00:41;4.18;;;3.33;;
54805;SDS011;62866;55.776;37.496;2023-06-26T07:03:07;4.78;;;3.25;;
54805;SDS011;62866;55.776;37.496;2023-06-26T07:05:33;5.20;;;3.83;;
54805;SDS011;62866;55.776;37.496;2023-06-26T07:07:58;4.28;;;2.90;;
54805;SDS011;62866;55.776;37.496;2023-06-26T07:10:24;5.75;;;4.45;;
54805;SDS011;62866;55.776;37.496;2023-06-26T07:12:49;5.20;;;3.83;;
54805;SDS011;62866;55.776;37.496;2023-06-26T07:15:15;6.03;;;3.67;;
54805;SDS011;62866;55.776;37.496;2023-06-26T07:17:42;5.68;;;3.33;;
54805;SDS011;62866;55.776;37.496;2023-06-26T07:20:07;3.78;;;3.03;;
54805;SDS011;62866;55.776;37.496;2023-06-26T07:22:35;4.93;;;3.50;;
54805;SDS011;62866;55.776;37.496;2023-06-26T07:25:01;4.07;;;3.30;;
54805;SDS011;62866;55.776;37.496;2023-06-26T07:27:28;5.57;;;3.75;;
54805;SDS011;62866;55.776;37.496;2023-06-26T07:29:54;5.10;;;3.20;;
54805;SDS011;62866;55.776;37.496;2023-06-26T07:32:20;6.10;;;3.45;;
54805;SDS011;62866;55.776;37.496;2023-06-26T07:34:45;5.35;;;3.67;;
54805;SDS011;62866;55.776;37.496;2023-06-26T07:37:11;4.72;;;3.75;;
54805;SDS011;62866;55.776;37.496;2023-06-26T07:39:36;4.35;;;3.40;;
54805;SDS011;62866;55.776;37.496;2023-06-26T07:42:02;5.53;;;4.05;;
54805;SDS011;62866;55.776;37.496;2023-06-26T07:44:27;5.57;;;3.35;;
54805;SDS011;62866;55.776;37.496;2023-06-26T07:46:53;6.20;;;3.72;;
54805;SDS011;62866;55.776;37.496;2023-06-26T07:49:18;4.60;;;3.30;;
54805;SDS011;62866;55.776;37.496;2023-06-26T07:51:44;4.78;;;3.50;;
54805;SDS011;62866;55.776;37.496;2023-06-26T07:54:09;4.55;;;3.55;;
54805;SDS011;62866;55.776;37.496;2023-06-26T07:56:35;5.68;;;3.90;;
54805;SDS011;62866;55.776;37.496;2023-06-26T08:01:46;4.07;;;2.83;;
54805;SDS011;62866;55.776;37.496;2023-06-26T08:04:11;5.47;;;4.03;;
54805;SDS011;62866;55.776;37.496;2023-06-26T08:06:37;5.10;;;3.60;;
54805;SDS011;62866;55.776;37.496;2023-06-26T08:09:05;4.93;;;3.20;;
54805;SDS011;62866;55.776;37.496;2023-06-26T08:11:33;5.70;;;3.55;;
54805;SDS011;62866;55.776;37.496;2023-06-26T08:13:59;5.57;;;3.30;;
54805;SDS011;62866;55.776;37.496;2023-06-26T08:16:25;8.82;;;3.90;;
54805;SDS011;62866;55.776;37.496;2023-06-26T08:18:50;6.55;;;4.25;;
54805;SDS011;62866;55.776;37.496;2023-06-26T08:21:16;5.07;;;3.63;;
54805;SDS011;62866;55.776;37.496;2023-06-26T08:23:41;5.43;;;4.25;;
54805;SDS011;62866;55.776;37.496;2023-06-26T08:26:07;5.32;;;3.70;;
54805;SDS011;62866;55.776;37.496;2023-06-26T08:28:33;4.18;;;3.60;;
54805;SDS011;62866;55.776;37.496;2023-06-26T08:30:58;4.30;;;3.40;;
54805;SDS011;62866;55.776;37.496;2023-06-26T08:33:25;6.90;;;3.55;;
54805;SDS011;62866;55.776;37.496;2023-06-26T08:35:50;6.32;;;5.00;;
54805;SDS011;62866;55.776;37.496;2023-06-26T08:38:16;5.82;;;3.95;;
54805;SDS011;62866;55.776;37.496;2023-06-26T08:40:42;6.25;;;5.65;;
54805;SDS011;62866;55.776;37.496;2023-06-26T08:43:07;4.55;;;3.30;;
54805;SDS011;62866;55.776;37.496;2023-06-26T08:45:33;5.15;;;4.65;;
54805;SDS011;62866;55.776;37.496;2023-06-26T08:47:59;5.97;;;3.80;;
54805;SDS011;62866;55.776;37.496;2023-06-26T08:50:26;4.03;;;3.35;;
54805;SDS011;62866;55.776;37.496;2023-06-26T08:55:35;3.60;;;3.03;;
54805;SDS011;62866;55.776;37.496;2023-06-26T08:58:03;5.55;;;4.95;;
54805;SDS011;62866;55.776;37.496;2023-06-26T09:00:29;9.65;;;4.35;;
54805;SDS011;62866;55.776;37.496;2023-06-26T09:02:56;5.70;;;5.13;;
54805;SDS011;62866;55.776;37.496;2023-06-26T09:05:22;4.63;;;3.38;;
54805;SDS011;62866;55.776;37.496;2023-06-26T09:07:47;5.85;;;4.65;;
54805;SDS011;62866;55.776;37.496;2023-06-26T09:10:13;6.28;;;4.60;;
54805;SDS011;62866;55.776;37.496;2023-06-26T09:12:38;6.63;;;4.65;;
54805;SDS011;62866;55.776;37.496;2023-06-26T09:15:05;4.82;;;4.05;;
54805;SDS011;62866;55.776;37.496;2023-06-26T09:17:33;6.10;;;4.30;;
54805;SDS011;62866;55.776;37.496;2023-06-26T09:20:03;6.57;;;3.88;;
54805;SDS011;62866;55.776;37.496;2023-06-26T09:22:32;6.20;;;4.65;;
54805;SDS011;62866;55.776;37.496;2023-06-26T09:25:01;5.82;;;4.68;;
54805;SDS011;62866;55.776;37.496;2023-06-26T09:27:26;5.55;;;4.38;;
54805;SDS011;62866;55.776;37.496;2023-06-26T09:29:51;5.20;;;4.28;;
54805;SDS011;62866;55.776;37.496;2023-06-26T09:32:17;5.05;;;4.05;;
54805;SDS011;62866;55.776;37.496;2023-06-26T09:34:43;6.32;;;3.70;;
54805;SDS011;62866;55.776;37.496;2023-06-26T09:37:12;6.65;;;4.50;;
54805;SDS011;62866;55.776;37.496;2023-06-26T09:39:38;5.20;;;4.05;;
54805;SDS011;62866;55.776;37.496;2023-06-26T09:42:04;4.45;;;3.65;;
54805;SDS011;62866;55.776;37.496;2023-06-26T09:44:32;6.65;;;4.45;;
54805;SDS011;62866;55.776;37.496;2023-06-26T09:46:58;5.03;;;3.35;;
54805;SDS011;62866;55.776;37.496;2023-06-26T09:49:27;6.25;;;4.43;;
54805;SDS011;62866;55.776;37.496;2023-06-26T09:51:52;7.30;;;4.65;;
54805;SDS011;62866;55.776;37.496;2023-06-26T09:54:18;5.40;;;3.72;;
54805;SDS011;62866;55.776;37.496;2023-06-26T09:56:46;5.70;;;4.32;;
54805;SDS011;62866;55.776;37.496;2023-06-26T09:59:12;7.10;;;3.50;;
54805;SDS011;62866;55.776;37.496;2023-06-26T10:01:45;7.47;;;4.53;;
54805;SDS011;62866;55.776;37.496;2023-06-26T10:04:11;6.85;;;4.70;;
54805;SDS011;62866;55.776;37.496;2023-06-26T10:06:38;5.60;;;4.03;;
54805;SDS011;62866;55.776;37.496;2023-06-26T10:09:10;9.65;;;4.82;;
54805;SDS011;62866;55.776;37.496;2023-06-26T10:11:40;5.93;;;3.53;;
54805;SDS011;62866;55.776;37.496;2023-06-26T10:14:11;4.35;;;2.50;;
54805;SDS011;62866;55.776;37.496;2023-06-26T10:16:37;6.07;;;3.90;;
54805;SDS011;62866;55.776;37.496;2023-06-26T10:19:08;5.65;;;3.78;;
54805;SDS011;62866;55.776;37.496;2023-06-26T10:21:35;7.20;;;4.30;;
54805;SDS011;62866;55.776;37.496;2023-06-26T10:24:04;5.35;;;4.07;;
54805;SDS011;62866;55.776;37.496;2023-06-26T10:26:31;5.47;;;3.67;;
54805;SDS011;62866;55.776;37.496;2023-06-26T10:29:00;7.60;;;4.07;;
54805;SDS011;62866;55.776;37.496;2023-06-26T10:31:28;6.40;;;4.60;;
54805;SDS011;62866;55.776;37.496;2023-06-26T10:33:54;5.10;;;3.67;;
54805;SDS011;62866;55.776;37.496;2023-06-26T10:36:26;6.10;;;3.53;;
54805;SDS011;62866;55.776;37.496;2023-06-26T10:39:03;7.07;;;3.85;;
54805;SDS011;62866;55.776;37.496;2023-06-26T10:41:36;5.07;;;3.65;;
54805;SDS011;62866;55.776;37.496;2023-06-26T10:44:10;4.10;;;2.85;;
54805;SDS011;62866;55.776;37.496;2023-06-26T10:47:09;7.88;;;3.45;;
54805;SDS011;62866;55.776;37.496;2023-06-26T10:49:29;4.82;;;3.17;;
54805;SDS011;62866;55.776;37.496;2023-06-26T10:51:56;4.20;;;3.08;;
54805;SDS011;62866;55.776;37.496;2023-06-26T10:54:28;4.63;;;3.30;;
54805;SDS011;62866;55.776;37.496;2023-06-26T10:56:55;5.03;;;3.20;;
54805;SDS011;62866;55.776;37.496;2023-06-26T10:59:25;3.92;;;2.95;;
54805;SDS011;62866;55.776;37.496;2023-06-26T11:02:04;5.68;;;3.28;;
54805;SDS011;62866;55.776;37.496;2023-06-26T11:07:16;5.95;;;3.42;;
54805;SDS011;62866;55.776;37.496;2023-06-26T11:12:42;5.25;;;3.30;;
54805;SDS011;62866;55.776;37.496;2023-06-26T11:15:15;6.47;;;3.55;;
54805;SDS011;62866;55.776;37.496;2023-06-26T11:17:43;4.38;;;3.28;;
54805;SDS011;62866;55.776;37.496;2023-06-26T11:20:10;4.60;;;3.65;;
54805;SDS011;62866;55.776;37.496;2023-06-26T11:22:40;5.07;;;3.53;;
54805;SDS011;62866;55.776;37.496;2023-06-26T11:25:07;6.90;;;3.47;;
54805;SDS011;62866;55.776;37.496;2023-06-26T11:30:05;4.93;;;3.55;;
54805;SDS011;62866;55.776;37.496;2023-06-26T11:32:32;5.10;;;3.47;;
54805;SDS011;62866;55.776;37.496;2023-06-26T11:34:58;7.10;;;4.00;;
54805;SDS011;62866;55.776;37.496;2023-06-26T11:37:26;4.65;;;3.70;;
54805;SDS011;62866;55.776;37.496;2023-06-26T11:39:52;6.82;;;4.18;;
54805;SDS011;62866;55.776;37.496;2023-06-26T11:42:18;7.07;;;4.40;;
54805;SDS011;62866;55.776;37.496;2023-06-26T11:44:45;5.75;;;3.58;;
54805;SDS011;62866;55.776;37.496;2023-06-26T11:47:14;6.13;;;3.95;;
54805;SDS011;62866;55.776;37.496;2023-06-26T11:49:44;4.65;;;3.65;;
54805;SDS011;62866;55.776;37.496;2023-06-26T11:52:10;5.38;;;4.20;;
54805;SDS011;62866;55.776;37.496;2023-06-26T11:54:36;6.78;;;3.72;;
54805;SDS011;62866;55.776;37.496;2023-06-26T11:57:02;7.90;;;4.80;;
54805;SDS011;62866;55.776;37.496;2023-06-26T11:59:33;8.35;;;4.68;;
54805;SDS011;62866;55.776;37.496;2023-06-26T12:02:09;6.75;;;3.90;;
54805;SDS011;62866;55.776;37.496;2023-06-26T12:04:36;5.18;;;3.70;;
54805;SDS011;62866;55.776;37.496;2023-06-26T12:07:04;5.47;;;3.50;;
54805;SDS011;62866;55.776;37.496;2023-06-26T12:09:33;5.82;;;4.45;;
54805;SDS011;62866;55.776;37.496;2023-06-26T12:11:58;5.10;;;3.78;;
54805;SDS011;62866;55.776;37.496;2023-06-26T12:14:25;6.25;;;4.10;;
54805;SDS011;62866;55.776;37.496;2023-06-26T12:16:53;6.38;;;4.07;;
54805;SDS011;62866;55.776;37.496;2023-06-26T12:19:23;5.93;;;3.22;;
54805;SDS011;62866;55.776;37.496;2023-06-26T12:21:49;5.28;;;4.07;;
54805;SDS011;62866;55.776;37.496;2023-06-26T12:24:20;4.82;;;3.45;;
54805;SDS011;62866;55.776;37.496;2023-06-26T12:26:51;5.53;;;4.22;;
54805;SDS011;62866;55.776;37.496;2023-06-26T12:29:21;5.45;;;3.70;;
54805;SDS011;62866;55.776;37.496;2023-06-26T12:31:56;5.35;;;3.50;;
54805;SDS011;62866;55.776;37.496;2023-06-26T12:34:31;9.13;;;3.35;;
54805;SDS011;62866;55.776;37.496;2023-06-26T12:37:02;5.18;;;3.38;;
54805;SDS011;62866;55.776;37.496;2023-06-26T12:39:45;4.10;;;3.22;;
54805;SDS011;62866;55.776;37.496;2023-06-26T12:42:16;4.88;;;2.92;;
54805;SDS011;62866;55.776;37.496;2023-06-26T12:44:43;4.63;;;3.55;;
54805;SDS011;62866;55.776;37.496;2023-06-26T12:47:09;5.43;;;3.75;;
54805;SDS011;62866;55.776;37.496;2023-06-26T12:49:38;5.03;;;3.90;;
54805;SDS011;62866;55.776;37.496;2023-06-26T12:52:07;6.05;;;3.88;;
54805;SDS011;62866;55.776;37.496;2023-06-26T12:54:34;5.28;;;3.20;;
54805;SDS011;62866;55.776;37.496;2023-06-26T12:57:01;5.10;;;2.75;;
54805;SDS011;62866;55.776;37.496;2023-06-26T12:59:28;4.93;;;3.92;;
54805;SDS011;62866;55.776;37.496;2023-06-26T13:01:54;4.00;;;3.15;;
54805;SDS011;62866;55.776;37.496;2023-06-26T13:04:20;8.55;;;3.47;;
54805;SDS011;62866;55.776;37.496;2023-06-26T13:06:45;5.38;;;3.95;;
54805;SDS011;62866;55.776;37.496;2023-06-26T13:09:11;8.73;;;3.83;;
54805;SDS011;62866;55.776;37.496;2023-06-26T13:11:37;4.03;;;3.28;;
54805;SDS011;62866;55.776;37.496;2023-06-26T13:14:03;5.80;;;3.65;;
54805;SDS011;62866;55.776;37.496;2023-06-26T13:16:29;5.05;;;3.78;;
54805;SDS011;62866;55.776;37.496;2023-06-26T13:18:54;4.65;;;3.50;;
54805;SDS011;62866;55.776;37.496;2023-06-26T13:21:21;5.35;;;3.78;;
54805;SDS011;62866;55.776;37.496;2023-06-26T13:23:46;6.60;;;3.90;;
54805;SDS011;62866;55.776;37.496;2023-06-26T13:26:12;4.88;;;3.50;;
54805;SDS011;62866;55.776;37.496;2023-06-26T13:28:38;5.95;;;3.47;;
54805;SDS011;62866;55.776;37.496;2023-06-26T13:31:03;6.65;;;3.25;;
54805;SDS011;62866;55.776;37.496;2023-06-26T13:33:30;3.78;;;2.95;;
54805;SDS011;62866;55.776;37.496;2023-06-26T13:35:55;7.60;;;4.20;;
54805;SDS011;62866;55.776;37.496;2023-06-26T13:38:21;4.50;;;3.70;;
54805;SDS011;62866;55.776;37.496;2023-06-26T13:40:50;4.97;;;3.80;;
54805;SDS011;62866;55.776;37.496;2023-06-26T13:43:20;6.25;;;3.28;;
54805;SDS011;62866;55.776;37.496;2023-06-26T13:45:47;4.60;;;3.33;;
54805;SDS011;62866;55.776;37.496;2023-06-26T13:48:13;7.55;;;3.38;;
54805;SDS011;62866;55.776;37.496;2023-06-26T13:50:38;7.13;;;4.13;;
54805;SDS011;62866;55.776;37.496;2023-06-26T13:53:04;10.07;;;4.13;;
54805;SDS011;62866;55.776;37.496;2023-06-26T13:55:29;6.30;;;4.18;;
54805;SDS011;62866;55.776;37.496;2023-06-26T13:57:55;5.68;;;3.70;;
54805;SDS011;62866;55.776;37.496;2023-06-26T14:00:21;5.13;;;3.22;;
54805;SDS011;62866;55.776;37.496;2023-06-26T14:02:48;5.43;;;3.60;;
54805;SDS011;62866;55.776;37.496;2023-06-26T14:05:13;4.88;;;4.03;;
54805;SDS011;62866;55.776;37.496;2023-06-26T14:07:39;4.93;;;3.28;;
54805;SDS011;62866;55.776;37.496;2023-06-26T14:10:05;4.80;;;3.35;;
54805;SDS011;62866;55.776;37.496;2023-06-26T14:12:31;5.65;;;3.80;;
54805;SDS011;62866;55.776;37.496;2023-06-26T14:14:57;4.20;;;3.30;;
54805;SDS011;62866;55.776;37.496;2023-06-26T14:17:23;4.68;;;3.35;;
54805;SDS011;62866;55.776;37.496;2023-06-26T14:19:54;4.90;;;3.00;;
54805;SDS011;62866;55.776;37.496;2023-06-26T14:22:19;3.70;;;2.80;;
54805;SDS011;62866;55.776;37.496;2023-06-26T14:24:45;3.78;;;2.70;;
54805;SDS011;62866;55.776;37.496;2023-06-26T14:27:10;4.47;;;3.20;;
54805;SDS011;62866;55.776;37.496;2023-06-26T14:29:36;6.47;;;3.67;;
54805;SDS011;62866;55.776;37.496;2023-06-26T14:32:02;5.38;;;3.70;;
54805;SDS011;62866;55.776;37.496;2023-06-26T14:34:28;5.97;;;3.20;;
54805;SDS011;62866;55.776;37.496;2023-06-26T14:36:54;6.88;;;3.83;;
54805;SDS011;62866;55.776;37.496;2023-06-26T14:39:20;3.85;;;3.08;;
54805;SDS011;62866;55.776;37.496;2023-06-26T14:41:45;4.28;;;3.22;;
54805;SDS011;62866;55.776;37.496;2023-06-26T14:44:12;4.43;;;2.67;;